createdAt,value
2023-05-07T00:01:55.734Z,13.00
2023-05-07T00:04:22.773Z,13.00
2023-05-07T00:06:49.647Z,13.00
2023-05-07T00:09:17.629Z,13.00
2023-05-07T00:11:44.447Z,12.80
2023-05-07T00:14:11.231Z,12.70
2023-05-07T00:16:38.100Z,12.80
2023-05-07T00:19:05.414Z,12.90
2023-05-07T00:21:32.188Z,12.90
2023-05-07T00:23:58.959Z,12.90
2023-05-07T00:26:25.791Z,12.80
2023-05-07T00:28:52.569Z,12.90
2023-05-07T00:31:19.393Z,12.90
2023-05-07T00:33:46.374Z,12.90
2023-05-07T00:36:13.138Z,12.90
2023-05-07T00:38:40.532Z,13.00
2023-05-07T00:41:07.709Z,13.00
2023-05-07T00:43:34.642Z,13.00
2023-05-07T00:46:02.211Z,13.10
2023-05-07T00:48:29.186Z,13.00
2023-05-07T00:50:56.216Z,13.10
2023-05-07T00:53:23.307Z,13.10
2023-05-07T00:55:50.377Z,13.10
2023-05-07T00:58:17.871Z,13.00
2023-05-07T01:00:45.384Z,13.00
2023-05-07T01:03:12.373Z,13.00
2023-05-07T01:05:39.779Z,12.90
2023-05-07T01:08:07.505Z,12.70
2023-05-07T01:10:34.508Z,12.70
2023-05-07T01:13:02.228Z,12.80
2023-05-07T01:15:29.269Z,12.70
2023-05-07T01:17:57.797Z,12.70
2023-05-07T01:20:25.078Z,12.40
2023-05-07T01:22:52.278Z,12.30
2023-05-07T01:25:19.727Z,12.30
2023-05-07T01:27:47.002Z,12.40
2023-05-07T01:30:14.292Z,12.50
2023-05-07T01:32:59.502Z,12.20
2023-05-07T01:35:33.604Z,11.90
2023-05-07T01:38:01.447Z,11.50
2023-05-07T01:40:28.618Z,11.70
2023-05-07T01:42:55.759Z,11.20
2023-05-07T01:45:22.921Z,11.30
2023-05-07T01:47:50.816Z,11.60
2023-05-07T01:50:19.450Z,11.70
2023-05-07T01:52:46.316Z,11.10
2023-05-07T01:55:13.868Z,11.30
2023-05-07T01:57:41.013Z,11.20
2023-05-07T02:00:09.836Z,11.10
2023-05-07T02:02:37.380Z,10.80
2023-05-07T02:05:04.451Z,10.80
2023-05-07T02:07:31.255Z,10.40
2023-05-07T02:09:58.025Z,10.60
2023-05-07T02:12:24.920Z,10.70
2023-05-07T02:14:51.797Z,10.30
2023-05-07T02:17:18.577Z,10.40
2023-05-07T02:19:45.351Z,10.50
2023-05-07T02:22:12.200Z,10.30
2023-05-07T02:24:38.959Z,10.50
2023-05-07T02:27:05.989Z,10.70
2023-05-07T02:29:32.898Z,10.70
2023-05-07T02:31:59.706Z,10.80
2023-05-07T02:34:26.552Z,10.80
2023-05-07T02:36:53.328Z,10.90
2023-05-07T02:39:20.311Z,10.90
2023-05-07T02:41:47.080Z,11.00
2023-05-07T02:44:13.848Z,10.60
2023-05-07T02:46:40.766Z,10.50
2023-05-07T02:49:07.747Z,10.50
2023-05-07T02:51:34.605Z,10.10
2023-05-07T02:54:01.980Z,9.70
2023-05-07T02:56:28.916Z,10.00
2023-05-07T02:58:55.745Z,10.10
2023-05-07T03:01:22.770Z,10.20
2023-05-07T03:03:49.649Z,10.20
2023-05-07T03:06:16.516Z,10.20
2023-05-07T03:08:43.273Z,10.10
2023-05-07T03:11:10.171Z,10.40
2023-05-07T03:13:36.927Z,9.90
2023-05-07T03:16:03.844Z,10.00
2023-05-07T03:18:30.849Z,10.10
2023-05-07T03:20:58.134Z,10.20
2023-05-07T03:23:25.275Z,10.30
2023-05-07T03:25:52.390Z,10.40
2023-05-07T03:28:19.235Z,10.20
2023-05-07T03:30:46.069Z,9.90
2023-05-07T03:33:12.834Z,9.70
2023-05-07T03:35:39.609Z,9.60
2023-05-07T03:38:06.449Z,9.70
2023-05-07T03:40:33.338Z,9.60
2023-05-07T03:43:01.256Z,9.80
2023-05-07T03:45:28.137Z,10.00
2023-05-07T03:47:55.197Z,10.10
2023-05-07T03:50:22.202Z,9.90
2023-05-07T03:52:48.948Z,9.60
2023-05-07T03:55:15.715Z,9.80
2023-05-07T03:57:42.483Z,10.00
2023-05-07T04:00:10.088Z,10.00
2023-05-07T04:02:37.819Z,9.90
2023-05-07T04:05:04.974Z,10.10
2023-05-07T04:07:31.797Z,10.20
2023-05-07T04:09:58.855Z,10.20
2023-05-07T04:12:25.711Z,10.10
2023-05-07T04:14:52.454Z,10.20
2023-05-07T04:17:19.193Z,10.20
2023-05-07T04:19:46.864Z,10.30
2023-05-07T04:22:13.762Z,10.40
2023-05-07T04:24:40.651Z,10.40
2023-05-07T04:27:07.655Z,10.50
2023-05-07T04:29:34.478Z,10.40
2023-05-07T04:32:01.466Z,10.50
2023-05-07T04:34:28.382Z,10.60
2023-05-07T04:36:55.136Z,10.60
2023-05-07T04:39:22.106Z,10.70
2023-05-07T04:41:48.867Z,10.80
2023-05-07T04:44:15.738Z,10.80
2023-05-07T04:46:42.553Z,10.90
2023-05-07T04:49:09.326Z,10.80
2023-05-07T04:51:36.125Z,10.90
2023-05-07T04:54:03.159Z,11.10
2023-05-07T04:56:33.367Z,11.10
2023-05-07T04:59:00.168Z,11.20
2023-05-07T05:01:27.089Z,11.30
2023-05-07T05:03:54.107Z,11.40
2023-05-07T05:06:20.946Z,11.30
2023-05-07T05:08:47.757Z,11.30
2023-05-07T05:11:14.773Z,11.50
2023-05-07T05:13:41.741Z,11.60
2023-05-07T05:16:08.611Z,11.80
2023-05-07T05:18:36.068Z,11.90
2023-05-07T05:21:02.968Z,12.00
2023-05-07T05:23:29.741Z,12.10
2023-05-07T05:25:58.619Z,12.20
2023-05-07T05:28:25.593Z,12.30
2023-05-07T05:30:52.563Z,12.40
2023-05-07T05:33:19.385Z,12.50
2023-05-07T05:35:46.263Z,12.60
2023-05-07T05:38:13.218Z,12.70
2023-05-07T05:40:40.058Z,12.80
2023-05-07T05:43:07.266Z,12.90
2023-05-07T05:45:34.083Z,12.90
2023-05-07T05:48:01.397Z,13.00
2023-05-07T05:50:28.260Z,13.10
2023-05-07T05:52:55.280Z,13.10
2023-05-07T05:55:22.948Z,13.20
2023-05-07T05:57:49.782Z,13.30
2023-05-07T06:00:17.346Z,13.40
2023-05-07T06:02:44.531Z,13.50
2023-05-07T06:05:11.523Z,13.60
2023-05-07T06:07:38.352Z,13.60
2023-05-07T06:10:05.820Z,13.60
2023-05-07T06:12:32.955Z,13.60
2023-05-07T06:14:59.813Z,13.70
2023-05-07T06:17:26.694Z,13.70
2023-05-07T06:19:53.771Z,13.80
2023-05-07T06:22:20.748Z,13.90
2023-05-07T06:24:47.665Z,14.00
2023-05-07T06:27:14.462Z,14.00
2023-05-07T06:29:41.362Z,14.30
2023-05-07T06:32:18.178Z,14.40
2023-05-07T06:34:45.042Z,14.40
2023-05-07T06:37:11.871Z,14.60
2023-05-07T06:39:38.696Z,14.90
2023-05-07T06:42:05.769Z,14.90
2023-05-07T06:44:32.992Z,15.10
2023-05-07T06:46:59.936Z,15.20
2023-05-07T06:49:26.764Z,15.10
2023-05-07T06:51:53.673Z,15.20
2023-05-07T06:54:21.353Z,15.20
2023-05-07T06:56:48.124Z,15.10
2023-05-07T06:59:15.018Z,15.10
2023-05-07T07:01:41.930Z,15.30
2023-05-07T07:04:08.928Z,15.20
2023-05-07T07:06:35.839Z,15.40
2023-05-07T07:09:02.728Z,15.30
2023-05-07T07:11:29.526Z,15.50
2023-05-07T07:13:56.416Z,15.40
2023-05-07T07:16:26.443Z,15.60
2023-05-07T07:18:53.253Z,15.90
2023-05-07T07:21:19.995Z,16.00
2023-05-07T07:23:46.745Z,15.80
2023-05-07T07:26:13.500Z,15.90
2023-05-07T07:28:45.589Z,15.80
2023-05-07T07:31:13.342Z,15.70
2023-05-07T07:33:40.268Z,16.00
2023-05-07T07:36:07.828Z,16.00
2023-05-07T07:38:35.125Z,16.10
2023-05-07T07:41:02.751Z,16.30
2023-05-07T07:43:29.661Z,16.20
2023-05-07T07:45:56.634Z,16.20
2023-05-07T07:48:23.526Z,16.20
2023-05-07T07:50:52.216Z,16.20
2023-05-07T07:53:19.459Z,16.60
2023-05-07T07:55:46.721Z,16.60
2023-05-07T07:58:13.646Z,16.50
2023-05-07T08:00:40.627Z,16.50
2023-05-07T08:03:10.034Z,16.60
2023-05-07T08:05:37.624Z,16.80
2023-05-07T08:08:04.679Z,17.00
2023-05-07T08:10:35.240Z,16.60
2023-05-07T08:13:02.880Z,16.70
2023-05-07T08:15:29.722Z,16.70
2023-05-07T08:17:58.585Z,16.60
2023-05-07T08:20:25.588Z,16.80
2023-05-07T08:22:53.027Z,17.20
2023-05-07T08:25:19.961Z,17.10
2023-05-07T08:27:46.826Z,16.80
2023-05-07T08:30:14.343Z,16.60
2023-05-07T08:32:41.160Z,16.60
2023-05-07T08:35:08.470Z,16.80
2023-05-07T08:37:35.296Z,16.60
2023-05-07T08:40:02.067Z,16.70
2023-05-07T08:42:30.695Z,16.90
2023-05-07T08:45:00.761Z,17.00
2023-05-07T08:47:33.991Z,16.90
2023-05-07T08:50:01.447Z,16.80
2023-05-07T08:52:28.351Z,16.90
2023-05-07T08:54:55.246Z,16.90
2023-05-07T08:57:22.801Z,16.80
2023-05-07T08:59:49.685Z,16.90
2023-05-07T09:02:17.411Z,17.10
2023-05-07T09:04:44.398Z,17.30
2023-05-07T09:07:11.241Z,17.80
2023-05-07T09:09:38.578Z,17.80
2023-05-07T09:12:05.634Z,17.90
2023-05-07T09:14:32.490Z,18.10
2023-05-07T09:16:59.350Z,18.50
2023-05-07T09:19:27.458Z,18.30
2023-05-07T09:22:05.249Z,17.80
2023-05-07T09:24:36.059Z,18.10
2023-05-07T09:27:03.604Z,18.10
2023-05-07T09:29:31.248Z,18.00
2023-05-07T09:31:58.111Z,17.70
2023-05-07T09:34:25.057Z,17.80
2023-05-07T09:36:51.971Z,17.80
2023-05-07T09:39:18.930Z,18.40
2023-05-07T09:41:46.797Z,18.90
2023-05-07T09:44:15.427Z,19.00
2023-05-07T09:46:45.530Z,19.00
2023-05-07T09:49:22.921Z,18.80
2023-05-07T09:51:52.686Z,18.70
2023-05-07T09:54:20.429Z,18.70
2023-05-07T09:56:49.874Z,18.50
2023-05-07T09:59:17.831Z,19.00
2023-05-07T10:01:45.976Z,19.10
2023-05-07T10:04:13.776Z,19.50
2023-05-07T10:06:41.880Z,19.50
2023-05-07T10:09:09.612Z,19.30
2023-05-07T10:11:37.457Z,19.30
2023-05-07T10:14:06.967Z,19.30
2023-05-07T10:16:39.058Z,19.70
2023-05-07T10:19:11.109Z,20.30
2023-05-07T10:21:39.527Z,20.70
2023-05-07T10:24:15.648Z,20.30
2023-05-07T10:26:45.733Z,20.00
2023-05-07T10:29:27.699Z,19.80
2023-05-07T10:32:22.276Z,20.20
2023-05-07T10:34:54.519Z,20.50
2023-05-07T10:37:24.288Z,20.50
2023-05-07T10:39:51.196Z,20.00
2023-05-07T10:42:18.200Z,19.70
2023-05-07T10:44:45.138Z,19.50
2023-05-07T10:47:14.272Z,19.50
2023-05-07T10:50:07.448Z,19.30
2023-05-07T10:52:34.278Z,19.10
2023-05-07T10:55:16.381Z,18.80
2023-05-07T10:57:43.320Z,18.70
2023-05-07T11:00:37.917Z,18.80
2023-05-07T11:03:09.524Z,18.80
2023-05-07T11:05:38.556Z,18.70
2023-05-07T11:08:06.327Z,18.90
2023-05-07T11:10:57.152Z,19.30
2023-05-07T11:13:43.654Z,19.70
2023-05-07T11:16:24.568Z,19.80
2023-05-07T11:18:54.077Z,19.50
2023-05-07T11:21:35.023Z,19.60
2023-05-07T11:24:24.325Z,19.70
2023-05-07T11:26:51.637Z,19.50
2023-05-07T11:29:24.079Z,19.60
2023-05-07T11:31:53.039Z,19.30
2023-05-07T11:34:24.639Z,19.80
2023-05-07T11:36:52.051Z,19.70
2023-05-07T11:39:25.926Z,20.30
2023-05-07T11:41:53.638Z,20.00
2023-05-07T11:44:20.637Z,19.70
2023-05-07T11:46:47.722Z,20.20
2023-05-07T11:49:14.691Z,20.60
2023-05-07T11:51:42.922Z,21.10
2023-05-07T11:54:12.476Z,21.20
2023-05-07T11:56:40.122Z,21.20
2023-05-07T11:59:07.370Z,21.30
2023-05-07T12:01:36.638Z,21.00
2023-05-07T12:04:06.389Z,20.50
2023-05-07T12:06:38.108Z,20.50
2023-05-07T12:09:06.072Z,20.20
2023-05-07T12:11:32.854Z,19.70
2023-05-07T12:14:00.122Z,20.00
2023-05-07T12:16:28.071Z,20.20
2023-05-07T12:18:56.275Z,20.20
2023-05-07T12:21:24.326Z,20.40
2023-05-07T12:23:51.511Z,21.00
2023-05-07T12:26:20.080Z,21.00
2023-05-07T12:28:47.427Z,21.10
2023-05-07T12:31:16.038Z,20.80
2023-05-07T12:33:43.319Z,20.40
2023-05-07T12:36:10.437Z,20.00
2023-05-07T12:38:42.003Z,20.20
2023-05-07T12:41:10.092Z,20.30
2023-05-07T12:43:37.580Z,20.20
2023-05-07T12:46:07.236Z,20.10
2023-05-07T12:48:34.633Z,19.90
2023-05-07T12:51:02.933Z,19.90
2023-05-07T12:53:32.200Z,20.10
2023-05-07T12:56:00.648Z,19.90
2023-05-07T12:58:30.298Z,19.80
2023-05-07T13:01:01.691Z,19.70
2023-05-07T13:03:33.388Z,19.80
2023-05-07T13:06:01.263Z,19.40
2023-05-07T13:08:46.337Z,19.40
2023-05-07T13:11:13.971Z,19.00
2023-05-07T13:13:41.934Z,18.70
2023-05-07T13:16:12.788Z,18.40
2023-05-07T13:18:41.331Z,18.30
2023-05-07T13:21:08.566Z,17.90
2023-05-07T13:23:36.788Z,17.40
2023-05-07T13:26:11.535Z,17.10
2023-05-07T13:28:45.601Z,16.80
2023-05-07T13:31:12.436Z,16.60
2023-05-07T13:33:39.280Z,16.50
2023-05-07T13:36:06.719Z,16.20
2023-05-07T13:38:33.500Z,16.10
2023-05-07T13:41:00.257Z,16.00
2023-05-07T13:43:27.036Z,15.90
2023-05-07T13:45:54.115Z,15.70
2023-05-07T13:48:21.017Z,15.70
2023-05-07T13:50:47.734Z,15.60
2023-05-07T13:53:16.694Z,15.50
2023-05-07T13:55:43.461Z,15.30
2023-05-07T13:58:10.508Z,15.20
2023-05-07T14:00:37.394Z,15.30
2023-05-07T14:03:06.283Z,15.30
2023-05-07T14:05:33.206Z,15.40
2023-05-07T14:08:00.149Z,15.30
2023-05-07T14:10:27.185Z,15.40
2023-05-07T14:12:54.089Z,15.50
2023-05-07T14:15:21.242Z,15.50
2023-05-07T14:17:48.091Z,15.30
2023-05-07T14:20:15.552Z,15.00
2023-05-07T14:22:42.534Z,14.90
2023-05-07T14:25:10.811Z,14.70
2023-05-07T14:27:38.072Z,14.80
2023-05-07T14:30:05.500Z,14.70
2023-05-07T14:32:33.093Z,14.60
2023-05-07T14:34:59.872Z,14.50
2023-05-07T14:37:26.624Z,14.60
2023-05-07T14:39:53.415Z,14.70
2023-05-07T14:42:20.422Z,14.60
2023-05-07T14:44:48.892Z,14.60
2023-05-07T14:47:17.629Z,14.70
2023-05-07T14:49:46.563Z,14.60
2023-05-07T14:52:13.447Z,14.70
2023-05-07T14:54:40.414Z,14.60
2023-05-07T14:57:08.130Z,14.60
2023-05-07T14:59:35.041Z,14.70
2023-05-07T15:02:05.407Z,14.80
2023-05-07T15:04:33.806Z,14.90
2023-05-07T15:07:00.987Z,14.90
2023-05-07T15:09:28.042Z,14.80
2023-05-07T15:11:54.809Z,14.90
2023-05-07T15:14:23.143Z,14.90
2023-05-07T15:16:51.018Z,14.90
2023-05-07T15:19:18.191Z,14.80
2023-05-07T15:21:45.127Z,14.90
2023-05-07T15:24:12.066Z,15.00
2023-05-07T15:26:38.880Z,15.00
2023-05-07T15:29:11.096Z,15.00
2023-05-07T15:31:39.892Z,14.90
2023-05-07T15:34:07.043Z,14.90
2023-05-07T15:36:33.937Z,15.00
2023-05-07T15:39:01.197Z,15.10
2023-05-07T15:41:28.045Z,15.20
2023-05-07T15:43:54.923Z,15.30
2023-05-07T15:46:25.428Z,15.30
2023-05-07T15:48:53.455Z,15.50
2023-05-07T15:51:21.220Z,15.50
2023-05-07T15:53:48.328Z,15.60
2023-05-07T15:56:15.210Z,15.50
2023-05-07T15:58:42.030Z,15.60
2023-05-07T16:01:08.861Z,15.60
2023-05-07T16:03:35.973Z,15.60
2023-05-07T16:06:03.007Z,15.60
2023-05-07T16:08:29.870Z,15.60
2023-05-07T16:10:56.786Z,15.60
2023-05-07T16:13:24.961Z,15.50
2023-05-07T16:15:58.534Z,15.50
2023-05-07T16:18:25.833Z,15.50
2023-05-07T16:20:52.864Z,15.50
2023-05-07T16:23:19.709Z,15.50
2023-05-07T16:25:46.653Z,15.50
2023-05-07T16:28:14.457Z,15.40
2023-05-07T16:30:41.406Z,15.20
2023-05-07T16:33:08.434Z,15.30
2023-05-07T16:35:35.324Z,15.50
2023-05-07T16:38:02.193Z,15.50
2023-05-07T16:40:29.023Z,15.50
2023-05-07T16:42:56.337Z,15.60
2023-05-07T16:45:23.429Z,15.40
2023-05-07T16:47:50.393Z,15.40
2023-05-07T16:50:17.295Z,15.40
2023-05-07T16:52:44.211Z,15.30
2023-05-07T16:55:11.596Z,15.30
2023-05-07T16:57:39.131Z,15.30
2023-05-07T17:00:07.560Z,15.40
2023-05-07T17:02:37.307Z,15.50
2023-05-07T17:05:06.393Z,15.50
2023-05-07T17:07:33.249Z,15.50
2023-05-07T17:10:00.036Z,15.40
2023-05-07T17:12:27.027Z,15.50
2023-05-07T17:14:53.862Z,15.40
2023-05-07T17:17:20.668Z,15.40
2023-05-07T17:19:47.494Z,15.50
2023-05-07T17:22:14.287Z,15.40
2023-05-07T17:24:41.177Z,15.40
2023-05-07T17:27:08.105Z,15.20
2023-05-07T17:29:35.084Z,15.20
2023-05-07T17:32:02.135Z,15.00
2023-05-07T17:34:29.050Z,14.80
2023-05-07T17:36:57.542Z,14.70
2023-05-07T17:39:24.599Z,14.70
2023-05-07T17:41:51.489Z,14.70
2023-05-07T17:44:18.805Z,14.60
2023-05-07T17:46:46.024Z,14.70
2023-05-07T17:49:14.358Z,14.80
2023-05-07T17:51:53.405Z,14.90
2023-05-07T17:54:23.076Z,14.90
2023-05-07T17:56:49.884Z,15.00
2023-05-07T17:59:16.880Z,15.00
2023-05-07T18:01:44.299Z,15.00
2023-05-07T18:04:11.646Z,14.90
2023-05-07T18:06:39.007Z,15.00
2023-05-07T18:09:05.919Z,14.90
2023-05-07T18:11:33.713Z,14.90
2023-05-07T18:14:00.965Z,14.90
2023-05-07T18:16:29.948Z,14.90
2023-05-07T18:18:56.796Z,14.90
2023-05-07T18:21:23.605Z,14.80
2023-05-07T18:23:51.528Z,14.70
2023-05-07T18:26:18.388Z,14.80
2023-05-07T18:28:46.191Z,14.80
2023-05-07T18:31:13.059Z,14.60
2023-05-07T18:33:40.021Z,14.60
2023-05-07T18:36:07.153Z,14.60
2023-05-07T18:38:34.268Z,14.60
2023-05-07T18:41:03.248Z,14.70
2023-05-07T18:43:30.225Z,14.80
2023-05-07T18:45:57.141Z,14.70
2023-05-07T18:48:23.950Z,14.70
2023-05-07T18:50:50.907Z,14.60
2023-05-07T18:53:17.713Z,14.40
2023-05-07T18:55:48.767Z,14.40
2023-05-07T18:58:16.632Z,14.50
2023-05-07T19:00:43.428Z,14.40
2023-05-07T19:03:10.548Z,14.50
2023-05-07T19:05:37.509Z,14.40
2023-05-07T19:08:04.437Z,14.40
2023-05-07T19:10:31.206Z,14.50
2023-05-07T19:12:58.032Z,14.30
2023-05-07T19:15:24.939Z,14.30
2023-05-07T19:17:51.951Z,14.40
2023-05-07T19:20:18.893Z,14.50
2023-05-07T19:22:45.683Z,14.50
2023-05-07T19:25:14.190Z,14.50
2023-05-07T19:27:41.144Z,14.50
2023-05-07T19:30:09.082Z,14.50
2023-05-07T19:32:35.972Z,14.60
2023-05-07T19:35:03.092Z,14.50
2023-05-07T19:37:30.243Z,14.50
2023-05-07T19:39:57.130Z,14.60
2023-05-07T19:42:23.934Z,14.60
2023-05-07T19:44:50.909Z,14.60
2023-05-07T19:47:17.787Z,14.60
2023-05-07T19:49:44.610Z,14.50
2023-05-07T19:52:11.378Z,14.50
2023-05-07T19:54:38.438Z,14.50
2023-05-07T19:57:05.390Z,14.50
2023-05-07T19:59:32.203Z,14.50
2023-05-07T20:01:59.012Z,14.50
2023-05-07T20:04:30.384Z,14.50
2023-05-07T20:06:57.546Z,14.50
2023-05-07T20:09:24.401Z,14.50
2023-05-07T20:11:51.276Z,14.50
2023-05-07T20:14:18.031Z,14.50
2023-05-07T20:16:45.934Z,14.60
2023-05-07T20:19:12.853Z,14.50
2023-05-07T20:21:39.627Z,14.40
2023-05-07T20:24:07.646Z,14.30
2023-05-07T20:26:34.499Z,14.10
2023-05-07T20:29:01.274Z,14.10
2023-05-07T20:31:28.115Z,14.10
2023-05-07T20:33:54.942Z,14.10
2023-05-07T20:36:21.725Z,14.10
2023-05-07T20:38:48.477Z,14.30
2023-05-07T20:41:15.361Z,14.30
2023-05-07T20:43:42.107Z,14.40
2023-05-07T20:46:09.099Z,14.40
2023-05-07T20:48:36.375Z,14.40
2023-05-07T20:51:03.420Z,14.40
2023-05-07T20:53:31.660Z,14.40
2023-05-07T20:55:59.623Z,14.40
2023-05-07T20:58:28.774Z,14.40
2023-05-07T21:00:56.399Z,14.30
2023-05-07T21:03:23.417Z,14.30
2023-05-07T21:05:54.562Z,14.20
2023-05-07T21:08:21.475Z,14.20
2023-05-07T21:10:49.473Z,14.20
2023-05-07T21:13:16.376Z,14.30
2023-05-07T21:15:43.267Z,14.30
2023-05-07T21:18:11.062Z,14.20
2023-05-07T21:20:38.262Z,14.20
2023-05-07T21:23:05.841Z,14.10
2023-05-07T21:25:32.809Z,14.10
2023-05-07T21:27:59.982Z,14.20
2023-05-07T21:30:26.917Z,14.20
2023-05-07T21:32:55.701Z,14.10
2023-05-07T21:35:22.539Z,14.00
2023-05-07T21:37:49.372Z,13.90
2023-05-07T21:40:16.244Z,13.90
2023-05-07T21:42:43.118Z,13.90
2023-05-07T21:45:10.637Z,13.80
2023-05-07T21:47:37.429Z,13.80
2023-05-07T21:50:05.231Z,13.70
2023-05-07T21:52:32.076Z,13.70
2023-05-07T21:54:58.841Z,13.60
2023-05-07T21:57:25.721Z,13.60
2023-05-07T21:59:52.477Z,13.60
2023-05-07T22:02:19.282Z,13.50
2023-05-07T22:04:46.130Z,13.60
2023-05-07T22:07:13.083Z,13.50
2023-05-07T22:09:39.837Z,13.50
2023-05-07T22:12:06.630Z,13.40
2023-05-07T22:14:33.432Z,13.30
2023-05-07T22:17:00.503Z,13.30
2023-05-07T22:19:27.363Z,13.40
2023-05-07T22:21:54.173Z,13.40
2023-05-07T22:24:21.049Z,13.30
2023-05-07T22:26:48.794Z,13.40
2023-05-07T22:29:15.656Z,13.10
2023-05-07T22:31:42.653Z,12.90
2023-05-07T22:34:09.499Z,12.90
2023-05-07T22:36:36.343Z,12.80
2023-05-07T22:39:07.055Z,12.80
2023-05-07T22:41:33.903Z,12.80
2023-05-07T22:44:00.807Z,12.80
2023-05-07T22:46:27.950Z,12.70
2023-05-07T22:48:54.800Z,12.70
2023-05-07T22:51:21.765Z,12.80
2023-05-07T22:53:48.629Z,12.70
2023-05-07T22:56:15.862Z,12.50
2023-05-07T22:58:42.682Z,12.50
2023-05-07T23:01:14.181Z,12.40
2023-05-07T23:03:41.330Z,12.30
2023-05-07T23:06:08.481Z,12.10
2023-05-07T23:08:35.431Z,12.10
2023-05-07T23:11:02.416Z,12.00
2023-05-07T23:13:29.224Z,11.90
2023-05-07T23:15:56.091Z,11.80
2023-05-07T23:18:22.862Z,11.70
2023-05-07T23:20:49.650Z,11.70
2023-05-07T23:23:16.439Z,11.60
2023-05-07T23:25:43.237Z,11.50
2023-05-07T23:28:10.106Z,11.40
2023-05-07T23:30:37.307Z,11.50
2023-05-07T23:33:04.319Z,11.40
2023-05-07T23:35:31.110Z,11.40
2023-05-07T23:37:59.012Z,11.40
2023-05-07T23:40:26.261Z,11.30
2023-05-07T23:42:53.030Z,11.30
2023-05-07T23:45:19.821Z,11.40
2023-05-07T23:47:49.171Z,11.50
2023-05-07T23:50:15.967Z,11.30
2023-05-07T23:52:42.770Z,11.50
2023-05-07T23:55:09.791Z,11.50
2023-05-07T23:57:36.598Z,11.50
